^^
Meteo Knjazevac Station Historical Data
Daily Summary for February 10, 2021 Units:  Metric    English   Both
Daily Weekly Monthly Yearly Custom
  High: Low: Average:
Temperature: 15.3 °C 11.3 °C 12.7 °C
Dew Point: 15 °C 10.6 °C 12 °C
Humidity: 99% 90% 95%
Wind Speed: 4.8km/h 0km/h 1.3km/h
Wind Gust: 8km/h - -
Wind- - West
Pressure: 1017.5 hPa 1016.8 hPa -
Precipitation: 0 mm    
Historical Graphs
 
 
Tabular Data for February 10, 2021
Time Temperature Dew Point Pressure Wind Wind Speed Wind Gust Humidity Rainfall Rate (Hourly) solar Conditions
00:00 14.9 °C 13.3 °C 1017.5 hPa WSW 1.6 km/h 4.8 km/h 90% 0 mm 0 W/m2
00:10 14.6 °C 13 °C 1017.5 hPa NNW 1.6 km/h 4.8 km/h 90% 0 mm 0 W/m2
00:20 14.4 °C 12.8 °C 1017.5 hPa West 1.6 km/h 3.2 km/h 90% 0 mm 0 W/m2
00:30 14.2 °C 12.8 °C 1017.5 hPa WSW 1.6 km/h 3.2 km/h 91% 0 mm 0 W/m2
00:40 14 °C 12.6 °C 1017.5 hPa WNW 1.6 km/h 3.2 km/h 91% 0 mm 0 W/m2
00:50 13.8 °C 12.7 °C 1017.5 hPa NW 1.6 km/h 4.8 km/h 93% 0 mm 0 W/m2
01:00 13.7 °C 12.6 °C 1017.5 hPa West 1.6 km/h 3.2 km/h 93% 0 mm 0 W/m2
01:10 13.5 °C 12.4 °C 1017.2 hPa West 3.2 km/h 8 km/h 93% 0 mm 0 W/m2
01:20 13.2 °C 12.1 °C 1017.2 hPa WSW 4.8 km/h 8 km/h 93% 0 mm 0 W/m2
01:30 13.1 °C 12.2 °C 1017.2 hPa WNW 1.6 km/h 8 km/h 94% 0 mm 0 W/m2
01:40 13.1 °C 12.1 °C 1017.2 hPa Calm   3.2 km/h 94% 0 mm 0 W/m2
01:50 13 °C 12.1 °C 1017.2 hPa Calm   3.2 km/h 94% 0 mm 0 W/m2
02:00 13 °C 12.1 °C 1017.2 hPa North 1.6 km/h 3.2 km/h 94% 0 mm 0 W/m2
02:10 13 °C 12.1 °C 1017.2 hPa NNW 1.6 km/h 3.2 km/h 94% 0 mm 0 W/m2
02:20 12.8 °C 11.8 °C 1017.2 hPa WSW 1.6 km/h 3.2 km/h 94% 0 mm 0 W/m2
02:30 12.7 °C 11.8 °C 1017.2 hPa WNW 3.2 km/h 4.8 km/h 94% 0 mm 0 W/m2
02:40 12.8 °C 12 °C 1017.2 hPa Calm   4.8 km/h 95% 0 mm 0 W/m2
02:50 12.7 °C 11.7 °C 1017.2 hPa WSW 1.6 km/h 4.8 km/h 94% 0 mm 0 W/m2
03:00 12.4 °C 11.6 °C 1017.2 hPa WNW 3.2 km/h 6.4 km/h 95% 0 mm 0 W/m2
03:10 12.4 °C 11.6 °C 1017.2 hPa WNW 1.6 km/h 4.8 km/h 95% 0 mm 0 W/m2
03:20 12.3 °C 11.5 °C 1017.2 hPa WSW 1.6 km/h 3.2 km/h 95% 0 mm 0 W/m2
03:30 12.1 °C 11.3 °C 1017.2 hPa Calm   3.2 km/h 95% 0 mm 0 W/m2
03:40 12.1 °C 11.3 °C 1016.8 hPa WNW 1.6 km/h 3.2 km/h 95% 0 mm 0 W/m2
03:50 12 °C 11.2 °C 1017.2 hPa Calm   1.6 km/h 95% 0 mm 0 W/m2
04:00 11.9 °C 11.1 °C 1017.2 hPa West 3.2 km/h 4.8 km/h 95% 0 mm 0 W/m2
04:10 11.9 °C 11.3 °C 1016.8 hPa NW 1.6 km/h 4.8 km/h 96% 0 mm 0 W/m2
04:20 12 °C 11.4 °C 1017.2 hPa Calm   3.2 km/h 96% 0 mm 0 W/m2
04:30 11.8 °C 11 °C 1017.2 hPa Calm   1.6 km/h 95% 0 mm 0 W/m2
04:40 11.6 °C 10.8 °C 1017.2 hPa Calm   3.2 km/h 95% 0 mm 0 W/m2
04:50 11.6 °C 10.8 °C 1017.2 hPa Calm   3.2 km/h 95% 0 mm 3 W/m2
05:00 11.4 °C 10.6 °C 1017.2 hPa Calm   1.6 km/h 95% 0 mm 8 W/m2
05:10 11.4 °C 10.8 °C 1017.2 hPa North 1.6 km/h 3.2 km/h 96% 0 mm 15 W/m2
05:20 11.4 °C 10.8 °C 1017.2 hPa WSW 1.6 km/h 4.8 km/h 96% 0 mm 23 W/m2
05:30 11.3 °C 10.8 °C 1017.2 hPa WNW 3.2 km/h 6.4 km/h 97% 0 mm 32 W/m2
05:40 11.4 °C 11.1 °C 1017.2 hPa WNW 1.6 km/h 8 km/h 98% 0 mm 41 W/m2
05:50 11.4 °C 11.2 °C 1017.2 hPa West 1.6 km/h 8 km/h 98% 0 mm 53 W/m2
06:00 11.4 °C 11.1 °C 1017.2 hPa West 4.8 km/h 8 km/h 98% 0 mm 57 W/m2
06:10 11.5 °C 11.2 °C 1017.2 hPa West 1.6 km/h 6.4 km/h 98% 0 mm 119 W/m2
06:20 11.6 °C 11.3 °C 1017.2 hPa Calm   3.2 km/h 98% 0 mm 144 W/m2
06:30 11.7 °C 11.4 °C 1017.2 hPa Calm   3.2 km/h 98% 0 mm 171 W/m2
06:40 11.9 °C 11.8 °C 1017.2 hPa Calm   1.6 km/h 99% 0 mm 204 W/m2
06:50 12.3 °C 12.2 °C 1017.2 hPa West 1.6 km/h 3.2 km/h 99% 0 mm 231 W/m2
07:00 12.7 °C 12.6 °C 1017.2 hPa Calm   8 km/h 99% 0 mm 264 W/m2
07:10 13.1 °C 12.9 °C 1016.8 hPa Calm   3.2 km/h 99% 0 mm 298 W/m2
07:20 13.4 °C 13.3 °C 1017.2 hPa Calm   1.6 km/h 99% 0 mm 331 W/m2
07:30 13.9 °C 13.7 °C 1017.2 hPa Calm   3.2 km/h 99% 0 mm 360 W/m2
07:40 14.3 °C 14.2 °C 1017.2 hPa SW 1.6 km/h 4.8 km/h 99% 0 mm 393 W/m2
07:50 14.8 °C 14.5 °C 1016.8 hPa SW 1.6 km/h 4.8 km/h 98% 0 mm 426 W/m2
08:00 15.3 °C 15 °C 1016.8 hPa West 1.6 km/h 3.2 km/h 98% 0 mm 462 W/m2
Knjazevac, Serbia
Compliments of Weather Underground - 2 mb